createdAt,value
2019-03-27T00:02:22.363Z,62.50
2019-03-27T00:04:55.583Z,62.50
2019-03-27T00:07:29.010Z,62.70
2019-03-27T00:10:02.255Z,62.80
2019-03-27T00:12:35.430Z,63.00
2019-03-27T00:15:13.353Z,63.10
2019-03-27T00:17:45.969Z,63.00
2019-03-27T00:20:19.709Z,63.20
2019-03-27T00:22:53.440Z,63.20
2019-03-27T00:25:26.777Z,63.50
2019-03-27T00:28:00.108Z,63.80
2019-03-27T00:30:33.564Z,63.90
2019-03-27T00:33:06.834Z,63.80
2019-03-27T00:35:40.242Z,63.80
2019-03-27T00:38:13.298Z,63.90
2019-03-27T00:40:46.989Z,64.00
2019-03-27T00:43:20.267Z,64.30
2019-03-27T00:45:53.632Z,64.40
2019-03-27T00:48:26.862Z,64.80
2019-03-27T00:51:00.136Z,64.50
2019-03-27T00:53:33.713Z,65.10
2019-03-27T00:56:07.257Z,65.50
2019-03-27T00:58:40.473Z,65.60
2019-03-27T01:01:17.107Z,65.60
2019-03-27T01:03:50.303Z,65.90
2019-03-27T01:06:23.578Z,66.10
2019-03-27T01:08:56.756Z,66.00
2019-03-27T01:11:29.856Z,66.10
2019-03-27T01:14:03.011Z,66.10
2019-03-27T01:16:36.323Z,66.40
2019-03-27T01:19:09.677Z,66.50
2019-03-27T01:21:42.966Z,66.60
2019-03-27T01:24:16.246Z,67.00
2019-03-27T01:26:49.609Z,67.30
2019-03-27T01:29:23.125Z,67.20
2019-03-27T01:31:56.467Z,67.60
2019-03-27T01:34:30.140Z,68.10
2019-03-27T01:37:03.478Z,68.00
2019-03-27T01:39:37.088Z,68.10
2019-03-27T01:42:10.443Z,68.20
2019-03-27T01:44:43.829Z,68.20
2019-03-27T01:47:17.107Z,68.60
2019-03-27T01:49:50.363Z,68.60
2019-03-27T01:52:23.686Z,69.00
2019-03-27T01:54:56.997Z,69.10
2019-03-27T01:57:31.419Z,69.30
2019-03-27T02:00:05.087Z,69.80
2019-03-27T02:02:38.355Z,70.30
2019-03-27T02:05:11.726Z,70.60
2019-03-27T02:07:45.088Z,71.10
2019-03-27T02:10:18.775Z,71.50
2019-03-27T02:12:51.828Z,72.30
2019-03-27T02:15:24.942Z,72.70
2019-03-27T02:17:58.381Z,72.90
2019-03-27T02:20:31.610Z,73.30
2019-03-27T02:23:05.112Z,73.80
2019-03-27T02:25:38.225Z,74.00
2019-03-27T02:28:11.413Z,74.40
2019-03-27T02:30:44.726Z,75.30
2019-03-27T02:33:18.022Z,75.60
2019-03-27T02:35:51.160Z,75.90
2019-03-27T02:38:24.458Z,76.60
2019-03-27T02:40:58.155Z,77.10
2019-03-27T02:43:31.724Z,77.70
2019-03-27T02:46:04.864Z,78.00
2019-03-27T02:48:38.067Z,78.20
2019-03-27T02:51:10.855Z,78.70
2019-03-27T02:53:44.044Z,79.90
2019-03-27T02:56:17.120Z,80.00
2019-03-27T02:58:50.586Z,80.20
2019-03-27T03:01:24.075Z,80.70
2019-03-27T03:03:57.595Z,81.20
2019-03-27T03:06:30.769Z,82.00
2019-03-27T03:09:05.594Z,82.40
2019-03-27T03:11:38.758Z,82.90
2019-03-27T03:14:12.152Z,82.40
2019-03-27T03:16:45.494Z,82.50
2019-03-27T03:19:18.664Z,82.80
2019-03-27T03:21:51.829Z,83.20
2019-03-27T03:24:24.933Z,83.10
2019-03-27T03:26:58.238Z,83.40
2019-03-27T03:29:31.312Z,83.60
2019-03-27T03:32:04.530Z,83.70
2019-03-27T03:34:37.789Z,84.20
2019-03-27T03:37:10.972Z,84.30
2019-03-27T03:39:44.214Z,84.30
2019-03-27T03:42:17.486Z,84.50
2019-03-27T03:44:50.761Z,84.90
2019-03-27T03:47:23.850Z,85.00
2019-03-27T03:49:57.045Z,85.10
2019-03-27T03:52:30.590Z,85.20
2019-03-27T03:55:03.869Z,85.50
2019-03-27T03:57:39.101Z,85.50
2019-03-27T04:00:12.777Z,85.60
2019-03-27T04:02:48.491Z,85.80
2019-03-27T04:05:24.180Z,86.30
2019-03-27T04:07:57.483Z,86.40
2019-03-27T04:10:30.605Z,86.60
2019-03-27T04:13:04.008Z,86.90
2019-03-27T04:15:37.270Z,87.20
2019-03-27T04:18:10.523Z,87.70
2019-03-27T04:20:43.688Z,88.40
2019-03-27T04:23:16.957Z,89.10
2019-03-27T04:26:11.634Z,89.50
2019-03-27T04:28:25.124Z,89.70
2019-03-27T04:30:58.370Z,90.10
2019-03-27T04:33:31.695Z,90.20
2019-03-27T04:36:04.847Z,90.30
2019-03-27T04:38:37.964Z,90.30
2019-03-27T04:41:11.307Z,90.50
2019-03-27T04:43:44.533Z,90.80
2019-03-27T04:46:17.675Z,91.00
2019-03-27T04:48:50.951Z,91.10
2019-03-27T04:51:24.188Z,91.00
2019-03-27T04:53:57.297Z,91.30
2019-03-27T04:56:31.021Z,91.80
2019-03-27T04:59:04.768Z,91.60
2019-03-27T05:01:38.162Z,91.90
2019-03-27T05:04:11.611Z,92.30
2019-03-27T05:06:44.884Z,92.60
2019-03-27T05:09:18.171Z,92.90
2019-03-27T05:11:51.342Z,93.20
2019-03-27T05:14:24.545Z,93.50
2019-03-27T05:16:58.023Z,93.60
2019-03-27T05:19:31.148Z,93.70
2019-03-27T05:22:04.738Z,94.20
2019-03-27T05:24:37.968Z,94.20
2019-03-27T05:27:18.247Z,94.60
2019-03-27T05:29:51.390Z,94.80
2019-03-27T05:32:24.667Z,94.90
2019-03-27T05:34:57.993Z,95.10
2019-03-27T05:37:31.329Z,95.10
2019-03-27T05:40:04.725Z,95.30
2019-03-27T05:42:38.028Z,95.40
2019-03-27T05:45:11.568Z,95.50
2019-03-27T05:47:58.646Z,95.60
2019-03-27T05:50:19.765Z,96.10
2019-03-27T05:52:53.096Z,95.90
2019-03-27T05:55:26.803Z,96.60
2019-03-27T05:58:00.143Z,96.50
2019-03-27T06:00:33.774Z,96.60
2019-03-27T06:03:07.347Z,96.60
2019-03-27T06:05:40.638Z,96.30
2019-03-27T06:08:14.082Z,96.30
2019-03-27T06:10:47.162Z,97.60
2019-03-27T06:13:20.429Z,97.90
2019-03-27T06:15:53.952Z,96.50
2019-03-27T06:18:27.060Z,95.90
2019-03-27T06:21:00.590Z,96.40
2019-03-27T06:23:33.898Z,96.50
2019-03-27T06:26:07.200Z,96.20
2019-03-27T06:28:40.554Z,96.30
2019-03-27T06:31:13.828Z,95.00
2019-03-27T06:33:47.072Z,95.20
2019-03-27T06:36:20.709Z,95.30
2019-03-27T06:38:53.917Z,95.30
2019-03-27T06:41:27.099Z,95.60
2019-03-27T06:44:00.418Z,95.50
2019-03-27T06:46:33.786Z,95.50
2019-03-27T06:49:06.938Z,95.50
2019-03-27T06:51:40.741Z,95.60
2019-03-27T06:54:14.399Z,95.40
2019-03-27T06:56:47.909Z,94.90
2019-03-27T06:59:21.433Z,95.00
2019-03-27T07:01:54.784Z,95.20
2019-03-27T07:04:28.179Z,94.80
2019-03-27T07:07:01.561Z,94.70
2019-03-27T07:09:34.902Z,94.50
2019-03-27T07:12:20.504Z,94.60
2019-03-27T07:14:43.326Z,94.60
2019-03-27T07:17:16.722Z,94.60
2019-03-27T07:19:49.906Z,94.10
2019-03-27T07:22:23.299Z,93.50
2019-03-27T07:24:56.678Z,92.80
2019-03-27T07:27:30.142Z,90.90
2019-03-27T07:30:03.488Z,89.10
2019-03-27T07:32:36.800Z,87.20
2019-03-27T07:35:10.389Z,85.20
2019-03-27T07:37:43.698Z,82.60
2019-03-27T07:40:17.269Z,78.30
2019-03-27T07:42:50.887Z,75.30
2019-03-27T07:45:24.211Z,72.10
2019-03-27T07:47:57.445Z,70.70
2019-03-27T07:50:31.180Z,70.40
2019-03-27T07:53:04.747Z,70.50
2019-03-27T07:55:37.793Z,71.50
2019-03-27T07:58:11.123Z,71.10
2019-03-27T08:00:44.427Z,72.50
2019-03-27T08:03:17.762Z,73.60
2019-03-27T08:05:51.854Z,73.00
2019-03-27T08:08:25.056Z,72.30
2019-03-27T08:10:58.268Z,71.10
2019-03-27T08:13:31.941Z,67.30
2019-03-27T08:16:05.349Z,66.00
2019-03-27T08:18:38.896Z,65.40
2019-03-27T08:21:12.386Z,65.10
2019-03-27T08:23:46.027Z,64.50
2019-03-27T08:26:19.384Z,64.00
2019-03-27T08:28:52.633Z,63.00
2019-03-27T08:31:25.983Z,64.20
2019-03-27T08:33:59.231Z,65.70
2019-03-27T08:36:32.533Z,66.60
2019-03-27T08:39:08.052Z,66.70
2019-03-27T08:41:41.581Z,66.30
2019-03-27T08:44:15.161Z,63.80
2019-03-27T08:46:48.596Z,63.50
2019-03-27T08:49:22.668Z,62.20
2019-03-27T08:51:56.255Z,61.30
2019-03-27T08:54:29.370Z,62.10
2019-03-27T08:57:02.897Z,62.50
2019-03-27T08:59:36.111Z,61.20
2019-03-27T09:02:09.520Z,61.90
2019-03-27T09:04:42.743Z,62.60
2019-03-27T09:07:16.256Z,60.80
2019-03-27T09:09:49.595Z,57.10
2019-03-27T09:12:23.204Z,54.70
2019-03-27T09:14:56.625Z,54.10
2019-03-27T09:17:30.136Z,54.80
2019-03-27T09:20:03.418Z,54.80
2019-03-27T09:22:37.369Z,55.70
2019-03-27T09:25:11.085Z,56.10
2019-03-27T09:27:45.680Z,55.70
2019-03-27T09:30:20.810Z,51.90
2019-03-27T09:32:54.364Z,49.60
2019-03-27T09:35:28.819Z,49.70
2019-03-27T09:38:02.052Z,50.00
2019-03-27T09:40:35.694Z,50.10
2019-03-27T09:43:08.932Z,50.70
2019-03-27T09:45:42.269Z,50.90
2019-03-27T09:48:15.563Z,51.30
2019-03-27T09:50:48.887Z,51.10
2019-03-27T09:53:22.292Z,49.30
2019-03-27T09:55:55.701Z,47.80
2019-03-27T09:58:29.008Z,48.10
2019-03-27T10:01:05.481Z,48.10
2019-03-27T10:03:38.903Z,48.80
2019-03-27T10:06:12.314Z,49.90
2019-03-27T10:08:46.416Z,50.00
2019-03-27T10:11:19.773Z,50.50
2019-03-27T10:13:53.109Z,48.50
2019-03-27T10:16:26.451Z,46.40
2019-03-27T10:19:00.136Z,46.90
2019-03-27T10:21:33.543Z,47.10
2019-03-27T10:24:07.378Z,47.30
2019-03-27T10:26:42.573Z,45.50
2019-03-27T10:29:15.686Z,46.70
2019-03-27T10:31:48.909Z,46.70
2019-03-27T10:34:22.366Z,45.90
2019-03-27T10:36:55.609Z,45.50
2019-03-27T10:39:29.170Z,46.10
2019-03-27T10:42:02.881Z,46.20
2019-03-27T10:44:36.641Z,46.50
2019-03-27T10:47:09.972Z,46.80
2019-03-27T10:49:43.256Z,46.80
2019-03-27T10:52:16.924Z,47.20
2019-03-27T10:54:50.149Z,47.10
2019-03-27T10:57:23.823Z,45.20
2019-03-27T10:59:57.340Z,44.00
2019-03-27T11:02:30.594Z,44.10
2019-03-27T11:05:04.018Z,44.50
2019-03-27T11:07:37.356Z,45.30
2019-03-27T11:10:11.980Z,45.20
2019-03-27T11:12:45.435Z,45.90
2019-03-27T11:15:19.321Z,46.20
2019-03-27T11:17:53.047Z,46.70
2019-03-27T11:20:31.396Z,47.00
2019-03-27T11:23:01.690Z,47.20
2019-03-27T11:25:34.939Z,47.10
2019-03-27T11:28:08.450Z,47.60
2019-03-27T11:30:43.668Z,46.80
2019-03-27T11:33:17.087Z,45.40
2019-03-27T11:35:51.820Z,45.70
2019-03-27T11:38:25.471Z,45.80
2019-03-27T11:40:59.114Z,45.70
2019-03-27T11:43:32.442Z,44.80
2019-03-27T11:46:05.822Z,45.00
2019-03-27T11:48:39.217Z,43.90
2019-03-27T11:51:12.438Z,42.80
2019-03-27T11:53:48.179Z,42.80
2019-03-27T11:56:21.458Z,42.10
2019-03-27T11:58:54.794Z,42.10
2019-03-27T12:01:39.163Z,42.60
2019-03-27T12:04:02.997Z,41.60
2019-03-27T12:06:36.522Z,40.80
2019-03-27T12:09:11.031Z,39.80
2019-03-27T12:11:44.422Z,41.00
2019-03-27T12:14:17.973Z,42.00
2019-03-27T12:16:51.213Z,42.80
2019-03-27T12:19:24.675Z,43.70
2019-03-27T12:21:58.136Z,43.40
2019-03-27T12:24:31.562Z,41.50
2019-03-27T12:27:04.823Z,42.90
2019-03-27T12:29:38.469Z,43.40
2019-03-27T12:32:11.888Z,43.00
2019-03-27T12:34:45.822Z,44.00
2019-03-27T12:37:19.115Z,44.40
2019-03-27T12:39:52.625Z,44.30
2019-03-27T12:42:25.803Z,44.70
2019-03-27T12:45:01.799Z,44.60
2019-03-27T12:47:34.597Z,45.20
2019-03-27T12:50:08.979Z,44.80
2019-03-27T12:52:42.514Z,44.80
2019-03-27T12:55:16.128Z,43.90
2019-03-27T12:57:49.264Z,44.20
2019-03-27T13:00:23.378Z,43.40
2019-03-27T13:02:56.773Z,43.30
2019-03-27T13:05:30.222Z,43.60
2019-03-27T13:08:15.543Z,42.40
2019-03-27T13:10:49.149Z,42.70
2019-03-27T13:13:23.594Z,44.00
2019-03-27T13:15:57.131Z,44.00
2019-03-27T13:18:30.864Z,44.30
2019-03-27T13:21:04.336Z,43.90
2019-03-27T13:23:37.636Z,44.00
2019-03-27T13:26:10.912Z,44.70
2019-03-27T13:28:49.098Z,44.20
2019-03-27T13:31:19.446Z,43.30
2019-03-27T13:33:52.752Z,43.90
2019-03-27T13:36:25.948Z,44.90
2019-03-27T13:38:59.143Z,45.30
2019-03-27T13:41:32.322Z,45.10
2019-03-27T13:44:05.556Z,45.20
2019-03-27T13:46:38.884Z,44.70
2019-03-27T13:49:12.507Z,45.10
2019-03-27T13:51:45.716Z,44.50
2019-03-27T13:54:19.201Z,44.80
2019-03-27T13:56:52.489Z,45.10
2019-03-27T13:59:25.777Z,44.70
2019-03-27T14:01:59.061Z,45.10
2019-03-27T14:04:32.736Z,45.30
2019-03-27T14:07:06.445Z,45.00
2019-03-27T14:09:39.712Z,45.60
2019-03-27T14:12:12.792Z,46.70
2019-03-27T14:14:50.522Z,46.30
2019-03-27T14:17:21.627Z,46.90
2019-03-27T14:19:55.048Z,45.40
2019-03-27T14:22:28.331Z,45.60
2019-03-27T14:25:01.650Z,45.20
2019-03-27T14:27:34.966Z,45.20
2019-03-27T14:30:11.192Z,45.90
2019-03-27T14:32:44.694Z,46.00
2019-03-27T14:35:18.106Z,45.90
2019-03-27T14:37:51.396Z,45.70
2019-03-27T14:40:24.641Z,46.80
2019-03-27T14:42:57.932Z,47.30
2019-03-27T14:45:31.264Z,47.80
2019-03-27T14:48:04.694Z,48.20
2019-03-27T14:50:38.050Z,48.20
2019-03-27T14:53:12.334Z,48.00
2019-03-27T14:55:45.566Z,48.20
2019-03-27T14:58:18.987Z,48.70
2019-03-27T15:00:52.329Z,48.30
2019-03-27T15:03:25.833Z,46.10
2019-03-27T15:05:59.296Z,46.90
2019-03-27T15:08:32.587Z,46.00
2019-03-27T15:11:05.894Z,46.20
2019-03-27T15:13:39.230Z,46.20
2019-03-27T15:16:12.828Z,46.30
2019-03-27T15:18:46.284Z,46.80
2019-03-27T15:21:19.685Z,47.00
2019-03-27T15:23:52.817Z,46.90
2019-03-27T15:26:26.131Z,46.90
2019-03-27T15:28:59.634Z,46.70
2019-03-27T15:31:33.059Z,46.80
2019-03-27T15:34:06.474Z,46.80
2019-03-27T15:36:39.989Z,47.00
2019-03-27T15:39:13.339Z,47.20
2019-03-27T15:41:46.799Z,47.00
2019-03-27T15:44:20.324Z,47.90
2019-03-27T15:46:53.811Z,48.00
2019-03-27T15:49:27.191Z,47.80
2019-03-27T15:52:00.492Z,47.90
2019-03-27T15:54:33.754Z,47.00
2019-03-27T15:57:07.456Z,47.00
2019-03-27T15:59:40.681Z,47.00
2019-03-27T16:02:14.108Z,46.60
2019-03-27T16:04:47.533Z,46.90
2019-03-27T16:07:21.366Z,47.30
2019-03-27T16:09:55.190Z,47.00
2019-03-27T16:12:29.313Z,47.10
2019-03-27T16:15:02.715Z,47.00
2019-03-27T16:17:36.302Z,47.00
2019-03-27T16:20:10.267Z,47.30
2019-03-27T16:22:53.821Z,47.70
2019-03-27T16:25:27.521Z,47.70
2019-03-27T16:28:01.357Z,47.80
2019-03-27T16:30:35.179Z,47.50
2019-03-27T16:33:08.413Z,47.60
2019-03-27T16:35:42.140Z,47.50
2019-03-27T16:38:15.696Z,47.60
2019-03-27T16:40:52.537Z,47.90
2019-03-27T16:43:25.918Z,47.70
2019-03-27T16:45:59.444Z,48.60
2019-03-27T16:48:32.940Z,48.30
2019-03-27T16:51:06.549Z,48.20
2019-03-27T16:53:40.104Z,48.30
2019-03-27T16:56:13.917Z,48.90
2019-03-27T16:58:47.243Z,49.70
2019-03-27T17:01:20.683Z,49.50
2019-03-27T17:03:54.071Z,49.70
2019-03-27T17:06:27.441Z,50.00
2019-03-27T17:09:00.920Z,50.20
2019-03-27T17:11:34.411Z,50.30
2019-03-27T17:14:08.023Z,50.60
2019-03-27T17:16:41.461Z,50.90
2019-03-27T17:19:15.396Z,51.60
2019-03-27T17:21:48.825Z,51.80
2019-03-27T17:24:22.796Z,52.20
2019-03-27T17:26:56.484Z,53.20
2019-03-27T17:29:30.035Z,53.10
2019-03-27T17:32:03.259Z,52.90
2019-03-27T17:34:36.859Z,53.40
2019-03-27T17:37:10.222Z,53.60
2019-03-27T17:39:43.778Z,53.60
2019-03-27T17:42:17.081Z,53.70
2019-03-27T17:44:52.098Z,54.20
2019-03-27T17:47:25.958Z,54.30
2019-03-27T17:49:59.342Z,54.60
2019-03-27T17:52:32.907Z,54.90
2019-03-27T17:55:06.664Z,55.10
2019-03-27T17:57:40.188Z,56.20
2019-03-27T18:00:16.581Z,55.20
2019-03-27T18:02:50.004Z,55.40
2019-03-27T18:05:23.702Z,55.50
2019-03-27T18:07:57.224Z,56.20
2019-03-27T18:10:30.674Z,57.30
2019-03-27T18:13:04.573Z,57.90
2019-03-27T18:15:38.108Z,58.00
2019-03-27T18:18:11.475Z,58.10
2019-03-27T18:20:45.793Z,58.30
2019-03-27T18:23:19.212Z,58.60
2019-03-27T18:25:52.407Z,58.80
2019-03-27T18:28:25.790Z,60.00
2019-03-27T18:30:59.477Z,59.50
2019-03-27T18:33:34.195Z,59.60
2019-03-27T18:36:07.814Z,59.90
2019-03-27T18:38:41.181Z,60.00
2019-03-27T18:41:14.673Z,60.50
2019-03-27T18:43:48.256Z,60.60
2019-03-27T18:46:21.630Z,60.90
2019-03-27T18:48:55.282Z,60.80
2019-03-27T18:51:28.849Z,61.00
2019-03-27T18:54:02.133Z,61.10
2019-03-27T18:56:35.639Z,61.50
2019-03-27T18:59:08.807Z,62.10
2019-03-27T19:01:42.644Z,62.20
2019-03-27T19:04:15.886Z,62.50
2019-03-27T19:06:59.987Z,63.20
2019-03-27T19:09:33.606Z,63.30
2019-03-27T19:12:07.138Z,63.80
2019-03-27T19:14:41.803Z,64.00
2019-03-27T19:17:15.612Z,64.40
2019-03-27T19:19:50.573Z,64.80
2019-03-27T19:22:24.380Z,65.30
2019-03-27T19:24:58.860Z,66.00
2019-03-27T19:27:33.384Z,66.30
2019-03-27T19:30:09.339Z,66.40
2019-03-27T19:32:42.701Z,66.60
2019-03-27T19:35:16.200Z,67.20
2019-03-27T19:37:49.587Z,67.70
2019-03-27T19:40:23.098Z,67.90
2019-03-27T19:42:56.442Z,68.10
2019-03-27T19:45:29.946Z,68.50
2019-03-27T19:48:04.208Z,68.80
2019-03-27T19:50:38.117Z,69.30
2019-03-27T19:53:12.275Z,69.50
2019-03-27T19:55:46.707Z,69.80
2019-03-27T19:58:20.654Z,70.30
2019-03-27T20:00:54.357Z,70.50
2019-03-27T20:03:27.909Z,70.80
2019-03-27T20:06:01.658Z,71.20
2019-03-27T20:08:35.360Z,71.30
2019-03-27T20:11:10.957Z,71.70
2019-03-27T20:13:44.876Z,72.00
2019-03-27T20:16:19.115Z,72.20
2019-03-27T20:18:52.613Z,72.60
2019-03-27T20:21:26.676Z,72.80
2019-03-27T20:24:01.238Z,73.10
2019-03-27T20:26:34.878Z,73.80
2019-03-27T20:29:08.554Z,74.00
2019-03-27T20:31:42.773Z,74.40
2019-03-27T20:34:16.404Z,74.30
2019-03-27T20:36:50.797Z,74.80
2019-03-27T20:39:24.421Z,78.10
2019-03-27T20:41:58.058Z,77.20
2019-03-27T20:44:31.647Z,76.00
2019-03-27T20:47:05.630Z,75.60
2019-03-27T20:49:39.445Z,76.00
2019-03-27T20:52:13.373Z,76.10
2019-03-27T20:54:55.023Z,76.50
2019-03-27T20:57:23.116Z,76.90
2019-03-27T20:59:59.984Z,77.30
2019-03-27T21:02:33.608Z,77.50
2019-03-27T21:05:09.266Z,80.20
2019-03-27T21:07:43.117Z,81.80
2019-03-27T21:10:17.350Z,78.80
2019-03-27T21:12:50.962Z,78.60
2019-03-27T21:15:24.671Z,79.80
2019-03-27T21:17:58.376Z,80.60
2019-03-27T21:20:32.089Z,81.00
2019-03-27T21:23:06.057Z,80.60
2019-03-27T21:25:40.512Z,81.00
2019-03-27T21:28:14.397Z,80.20
2019-03-27T21:30:47.858Z,80.00
2019-03-27T21:33:21.902Z,80.70
2019-03-27T21:35:59.123Z,79.80
2019-03-27T21:38:33.529Z,80.00
2019-03-27T21:41:07.655Z,80.50
2019-03-27T21:43:42.202Z,81.00
2019-03-27T21:46:16.724Z,79.40
2019-03-27T21:48:50.504Z,80.20
2019-03-27T21:51:24.941Z,79.80
2019-03-27T21:54:00.289Z,80.00
2019-03-27T21:56:36.421Z,81.00
2019-03-27T21:59:10.669Z,82.20
2019-03-27T22:01:44.535Z,81.50
2019-03-27T22:04:18.172Z,82.00
2019-03-27T22:06:51.516Z,82.10
2019-03-27T22:09:25.003Z,82.60
2019-03-27T22:11:58.458Z,83.00
2019-03-27T22:14:31.982Z,83.80
2019-03-27T22:17:05.495Z,84.00
2019-03-27T22:19:39.141Z,84.20
2019-03-27T22:22:12.499Z,84.80
2019-03-27T22:24:45.820Z,85.00
2019-03-27T22:27:19.574Z,85.10
2019-03-27T22:29:52.922Z,85.70
2019-03-27T22:32:26.278Z,86.30
2019-03-27T22:34:59.915Z,86.80
2019-03-27T22:37:33.253Z,87.10
2019-03-27T22:40:06.984Z,87.70
2019-03-27T22:42:40.416Z,88.50
2019-03-27T22:45:14.380Z,88.90
2019-03-27T22:47:48.396Z,89.10
2019-03-27T22:50:34.007Z,89.80
2019-03-27T22:53:07.345Z,90.30
2019-03-27T22:55:49.915Z,90.30
2019-03-27T22:58:16.581Z,90.50
2019-03-27T23:00:53.249Z,90.60
2019-03-27T23:03:27.689Z,90.70
2019-03-27T23:06:01.225Z,90.90
2019-03-27T23:08:34.684Z,91.50
2019-03-27T23:11:08.464Z,91.40
2019-03-27T23:13:42.004Z,91.50
2019-03-27T23:16:15.814Z,91.50
2019-03-27T23:18:49.428Z,91.60
2019-03-27T23:21:22.798Z,91.60
2019-03-27T23:23:56.573Z,91.80
2019-03-27T23:26:30.041Z,92.00
2019-03-27T23:29:03.261Z,92.20
2019-03-27T23:31:36.873Z,92.20
2019-03-27T23:34:10.089Z,92.50
2019-03-27T23:36:43.494Z,92.60
2019-03-27T23:39:17.081Z,92.80
2019-03-27T23:41:50.618Z,93.00
2019-03-27T23:44:24.055Z,93.20
2019-03-27T23:46:57.701Z,93.40
2019-03-27T23:49:31.453Z,93.70
2019-03-27T23:52:05.040Z,94.00
2019-03-27T23:54:38.702Z,94.20
2019-03-27T23:57:12.638Z,94.10
2019-03-27T23:59:46.289Z,94.20
